Time;durP1;ratioP1;P1;durP2;ratioP2;P2;SDS_P1;SDS_P2;PMS_P1;PMS_P2;Temp;Humidity;BMP_temperature;BMP_pressure;BME280_temperature;BME280_humidity;BME280_pressure;Samples;Min_cycle;Max_cycle;Signal;HPM_P1;HPM_P2
2023/12/17 00:03:37;;;;;;;16.27;5.95;;;;;;;10.81;96.31;102867.41;8271167;28;20121;-57
2023/12/17 00:07:37;;;;;;;15.00;5.82;;;;;;;10.81;96.12;102861.13;8273478;28;20062;-55
2023/12/17 00:11:41;;;;;;;13.60;5.63;;;;;;;10.81;95.63;102861.13;8272330;28;20041;-56
2023/12/17 00:15:42;;;;;;;11.17;4.80;;;;;;;10.81;95.68;102861.13;8271867;28;20126;-55
2023/12/17 00:19:42;;;;;;;13.98;5.80;;;;;;;10.83;95.94;102867.34;8273915;28;20281;-57
2023/12/17 00:23:42;;;;;;;15.07;6.03;;;;;;;10.81;95.75;102862.00;8265925;28;20511;-55
2023/12/17 00:27:43;;;;;;;8.32;4.88;;;;;;;10.85;95.85;102874.41;8272964;28;20302;-56
2023/12/17 00:31:43;;;;;;;10.23;4.50;;;;;;;10.89;96.03;102892.19;8273393;28;20046;-56
2023/12/17 00:35:43;;;;;;;11.25;4.22;;;;;;;10.86;96.12;102886.97;8271530;28;20045;-55
2023/12/17 00:39:44;;;;;;;10.55;4.82;;;;;;;10.87;95.86;102871.59;8227908;28;20034;-54
2023/12/17 00:43:44;;;;;;;7.68;4.03;;;;;;;10.89;96.10;102859.72;8189194;28;20066;-53
2023/12/17 00:47:45;;;;;;;8.32;4.45;;;;;;;10.87;95.74;102866.19;8188732;28;20182;-54
2023/12/17 00:51:45;;;;;;;10.13;4.40;;;;;;;10.90;95.70;102879.56;8174973;28;20340;-54
2023/12/17 00:55:46;;;;;;;11.20;4.55;;;;;;;10.87;95.79;102882.44;8229985;28;20261;-54
2023/12/17 00:59:46;;;;;;;9.60;3.92;;;;;;;10.86;96.39;102881.53;8174961;28;20261;-56
2023/12/17 01:03:46;;;;;;;9.15;4.28;;;;;;;10.86;96.09;102881.53;8173423;28;20183;-56
2023/12/17 01:07:47;;;;;;;9.75;4.70;;;;;;;10.84;96.33;102878.06;8176745;28;20525;-57
2023/12/17 01:11:48;;;;;;;10.50;3.90;;;;;;;10.82;96.61;102896.22;8171773;28;20293;-55
2023/12/17 01:15:48;;;;;;;8.43;4.03;;;;;;;10.79;96.84;102890.97;8215139;28;20077;-57
2023/12/17 01:19:48;;;;;;;9.10;3.83;;;;;;;10.79;97.30;102890.09;8219245;28;20593;-56
2023/12/17 01:23:49;;;;;;;6.57;3.95;;;;;;;10.75;97.29;102900.22;8213229;28;20031;-56
2023/12/17 01:27:49;;;;;;;6.78;4.10;;;;;;;10.71;97.05;102886.94;8265463;28;20042;-56
2023/12/17 01:31:50;;;;;;;10.38;3.95;;;;;;;10.72;97.08;102902.22;8272344;28;20041;-56
2023/12/17 01:35:50;;;;;;;6.97;3.75;;;;;;;10.72;97.60;102907.63;8269795;28;20574;-57
2023/12/17 01:39:51;;;;;;;8.77;3.35;;;;;;;10.67;97.33;102907.88;8273715;28;20042;-58
2023/12/17 01:43:51;;;;;;;8.20;3.38;;;;;;;10.68;97.78;102904.22;8268712;28;20118;-56
2023/12/17 01:47:52;;;;;;;5.18;3.40;;;;;;;10.72;97.00;102894.97;8270444;28;20050;-58
2023/12/17 01:51:52;;;;;;;5.50;3.10;;;;;;;10.73;97.52;102896.72;8269864;28;20046;-58
2023/12/17 01:55:53;;;;;;;7.70;3.63;;;;;;;10.74;97.54;102887.63;8272560;28;20460;-58
2023/12/17 01:59:53;;;;;;;6.40;3.35;;;;;;;10.81;97.54;102899.00;8267154;28;20503;-59
2023/12/17 02:03:55;;;;;;;9.57;4.10;;;;;;;10.78;97.33;102877.53;8270405;28;20035;-56
2023/12/17 02:07:56;;;;;;;8.23;3.75;;;;;;;10.67;97.96;102859.16;8267098;28;20551;-57
2023/12/17 02:11:56;;;;;;;5.05;3.35;;;;;;;10.77;98.09;102873.94;8270402;28;20074;-56
2023/12/17 02:15:56;;;;;;;7.55;3.83;;;;;;;10.79;98.22;102880.16;8274499;28;20049;-58
2023/12/17 02:19:57;;;;;;;9.52;4.00;;;;;;;10.78;97.58;102872.13;8269644;28;20046;-57
2023/12/17 02:23:58;;;;;;;8.60;3.67;;;;;;;10.79;97.90;102874.72;8251606;28;20437;-56
2023/12/17 02:27:59;;;;;;;8.40;4.35;;;;;;;10.78;97.91;102866.69;8197485;28;20105;-55
2023/12/17 02:31:59;;;;;;;8.27;4.45;;;;;;;10.78;98.17;102872.13;8175684;28;20340;-56
2023/12/17 02:35:59;;;;;;;7.45;4.50;;;;;;;10.77;98.65;102871.22;8174513;28;20061;-55
2023/12/17 02:40:00;;;;;;;10.60;3.85;;;;;;;10.77;98.25;102860.41;8158205;28;20050;-54
2023/12/17 02:44:00;;;;;;;7.68;3.70;;;;;;;10.77;97.66;102863.09;8178513;28;20184;-56
2023/12/17 02:48:01;;;;;;;5.68;3.92;;;;;;;10.77;98.16;102876.63;8148955;28;20284;-55
2023/12/17 02:52:01;;;;;;;7.28;3.58;;;;;;;10.77;97.72;102876.63;8139592;28;20271;-55
2023/12/17 02:56:02;;;;;;;6.50;3.55;;;;;;;10.77;97.29;102873.94;8191531;28;20265;-55
2023/12/17 03:00:03;;;;;;;5.97;3.30;;;;;;;10.76;96.48;102864.06;8217778;28;20240;-54
2023/12/17 03:04:04;;;;;;;6.93;3.42;;;;;;;10.79;96.76;102869.31;8214768;28;20495;-54
2023/12/17 03:08:05;;;;;;;6.95;3.53;;;;;;;10.75;96.96;102861.47;8212075;28;20049;-56
2023/12/17 03:12:05;;;;;;;4.75;3.13;;;;;;;10.77;96.59;102857.69;8214584;28;20066;-55
2023/12/17 03:16:09;;;;;;;5.50;2.97;;;;;;;10.74;96.38;102855.16;8259416;28;20063;-55
2023/12/17 03:20:10;;;;;;;5.23;3.53;;;;;;;10.75;96.75;102854.22;8270119;28;20046;-56
2023/12/17 03:24:10;;;;;;;9.02;3.47;;;;;;;10.73;96.71;102839.91;8267256;28;20037;-56
2023/12/17 03:28:11;;;;;;;6.85;3.65;;;;;;;10.79;95.96;102834.16;8270486;28;20034;-56
2023/12/17 03:32:13;;;;;;;5.68;2.92;;;;;;;10.86;94.81;102827.41;8269228;28;20041;-55
2023/12/17 03:36:15;;;;;;;4.07;2.17;;;;;;;10.92;93.79;102835.19;8272499;28;20041;-54
2023/12/17 03:40:15;;;;;;;5.85;3.10;;;;;;;10.93;93.40;102845.09;8268489;28;20038;-55
2023/12/17 03:44:16;;;;;;;5.53;3.15;;;;;;;10.95;94.02;102853.13;8275503;28;20037;-55
2023/12/17 03:48:17;;;;;;;5.68;3.42;;;;;;;10.90;95.11;102845.25;8276508;28;20045;-55
2023/12/17 03:52:17;;;;;;;6.78;3.63;;;;;;;10.89;95.23;102838.06;8272240;28;20058;-55
2023/12/17 03:56:17;;;;;;;8.60;3.53;;;;;;;10.87;95.42;102840.00;8276325;28;20045;-55
2023/12/17 04:00:18;;;;;;;9.20;4.43;;;;;;;10.86;95.40;102832.84;8254826;28;20033;-56
2023/12/17 04:04:18;;;;;;;8.43;4.47;;;;;;;10.83;95.66;102827.59;8222451;28;20034;-55
2023/12/17 04:08:19;;;;;;;7.93;3.58;;;;;;;10.80;95.75;102821.50;8220790;28;20133;-56
2023/12/17 04:12:19;;;;;;;2.67;1.90;;;;;;;10.70;93.79;102822.97;8220364;28;20757;-56
2023/12/17 04:16:20;;;;;;;3.40;2.08;;;;;;;10.67;93.43;102821.28;8217833;28;20049;-56
2023/12/17 04:20:20;;;;;;;3.42;2.33;;;;;;;10.65;93.71;102812.41;8200611;28;20270;-55
2023/12/17 04:24:21;;;;;;;3.60;2.08;;;;;;;10.61;94.34;102805.41;8173272;28;20744;-56
2023/12/17 04:28:21;;;;;;;3.50;2.40;;;;;;;10.59;94.40;102795.63;8191360;28;20060;-56
2023/12/17 04:32:21;;;;;;;4.22;2.20;;;;;;;10.59;93.94;102798.34;8236362;28;20050;-56
2023/12/17 04:36:22;;;;;;;5.70;2.63;;;;;;;10.59;94.08;102801.94;8253506;28;20747;-57
2023/12/17 04:40:22;;;;;;;6.45;2.40;;;;;;;10.56;94.12;102804.81;8220060;28;20296;-56
2023/12/17 04:44:23;;;;;;;3.47;2.65;;;;;;;10.53;93.74;102802.28;8221089;28;20278;-55
2023/12/17 04:48:23;;;;;;;2.97;2.22;;;;;;;10.52;94.21;102805.91;8219827;28;20198;-55
2023/12/17 04:52:24;;;;;;;3.88;2.45;;;;;;;10.52;94.48;102816.72;8220635;28;20050;-55
2023/12/17 04:56:24;;;;;;;4.80;2.33;;;;;;;10.57;93.86;102814.66;8219494;28;20100;-56
2023/12/17 05:00:24;;;;;;;2.85;2.22;;;;;;;10.57;93.19;102808.34;8210109;28;20047;-56
2023/12/17 05:04:25;;;;;;;2.60;2.00;;;;;;;10.55;93.15;102811.16;8203116;28;20042;-57
2023/12/17 05:08:25;;;;;;;5.85;2.53;;;;;;;10.54;93.39;102801.28;8238320;28;20517;-57
2023/12/17 05:12:26;;;;;;;3.03;2.08;;;;;;;10.49;93.50;102806.06;8237103;28;20069;-57
2023/12/17 05:16:26;;;;;;;3.08;2.00;;;;;;;10.49;92.95;102789.84;8241629;28;20488;-56
2023/12/17 05:20:27;;;;;;;3.70;2.20;;;;;;;10.49;92.74;102805.22;8238354;28;20472;-57
2023/12/17 05:24:27;;;;;;;2.75;1.85;;;;;;;10.48;93.06;102808.88;8257807;28;20045;-58
2023/12/17 05:28:28;;;;;;;3.70;2.13;;;;;;;10.46;93.61;102795.41;8271294;28;20054;-56
2023/12/17 05:32:28;;;;;;;3.35;2.28;;;;;;;10.42;93.30;102788.44;8249007;28;20236;-56
2023/12/17 05:36:29;;;;;;;3.50;2.67;;;;;;;10.40;93.13;102790.34;8215399;28;20366;-55
2023/12/17 05:40:29;;;;;;;5.22;2.95;;;;;;;10.40;92.75;102795.75;8220687;28;20103;-56
2023/12/17 05:44:29;;;;;;;4.88;2.17;;;;;;;10.40;92.75;102790.34;8218017;28;20120;-56
2023/12/17 05:48:30;;;;;;;3.60;2.58;;;;;;;10.36;93.05;102788.78;8217906;28;20433;-55
2023/12/17 05:52:30;;;;;;;4.10;2.65;;;;;;;10.32;93.12;102771.00;8214190;28;20368;-55
2023/12/17 05:56:37;;;;;;;4.50;2.90;;;;;;;10.28;93.00;102766.69;8217678;28;20143;-55
2023/12/17 06:00:37;;;;;;;5.15;2.92;;;;;;;10.26;93.63;102776.72;8233460;28;20052;-55
2023/12/17 06:04:38;;;;;;;4.80;3.72;;;;;;;10.25;93.97;102780.41;8282583;28;20042;-55
2023/12/17 06:08:38;;;;;;;4.80;3.28;;;;;;;10.22;94.30;102775.16;8270733;28;20046;-55
2023/12/17 06:12:39;;;;;;;5.72;3.80;;;;;;;10.20;94.76;102771.66;8269799;28;20108;-56
2023/12/17 06:16:41;;;;;;;9.43;4.20;;;;;;;10.16;94.81;102772.78;8222314;28;20042;-55
2023/12/17 06:20:41;;;;;;;7.35;4.32;;;;;;;10.17;95.73;102768.22;8218057;28;20038;-55
2023/12/17 06:24:42;;;;;;;7.13;4.70;;;;;;;10.13;95.33;102774.78;8215659;28;20034;-55
2023/12/17 06:28:42;;;;;;;8.23;4.63;;;;;;;10.18;96.21;102773.56;8211043;28;20178;-56
2023/12/17 06:32:43;;;;;;;9.18;4.70;;;;;;;10.15;96.23;102779.13;8211155;28;20545;-53
2023/12/17 06:36:43;;;;;;;8.57;4.57;;;;;;;10.15;96.24;102773.72;8231947;28;20030;-55
2023/12/17 06:40:44;;;;;;;9.70;4.85;;;;;;;10.20;96.44;102777.06;8216670;28;20064;-55
2023/12/17 06:44:44;;;;;;;7.43;4.22;;;;;;;10.18;95.62;102768.16;8214821;28;20766;-55
2023/12/17 06:48:48;;;;;;;7.57;4.40;;;;;;;10.17;95.26;102761.00;8218890;28;20251;-55
2023/12/17 06:52:48;;;;;;;6.40;4.23;;;;;;;10.18;96.16;102773.56;8213067;28;20338;-55
2023/12/17 06:56:49;;;;;;;6.32;4.20;;;;;;;10.14;96.65;102787.31;8220096;28;20388;-56
2023/12/17 07:00:49;;;;;;;9.85;4.75;;;;;;;10.12;96.81;102784.69;8217874;28;20070;-57
2023/12/17 07:04:49;;;;;;;8.55;4.47;;;;;;;10.15;96.89;102784.53;8210705;28;20320;-56
2023/12/17 07:08:50;;;;;;;13.70;4.75;;;;;;;10.12;97.30;102783.84;8275552;28;20050;-56
2023/12/17 07:12:51;;;;;;;7.78;4.35;;;;;;;10.12;97.88;102789.25;8269559;28;20073;-55
2023/12/17 07:16:51;;;;;;;8.75;5.25;;;;;;;10.10;97.56;102783.94;8272751;28;20054;-55
2023/12/17 07:20:52;;;;;;;5.80;4.10;;;;;;;10.11;98.19;102782.97;8277170;28;20462;-55
2023/12/17 07:24:52;;;;;;;8.48;4.60;;;;;;;10.12;97.91;102790.09;8276547;28;20030;-55
2023/12/17 07:28:53;;;;;;;11.93;7.47;;;;;;;10.15;98.08;102787.25;8281151;28;20052;-55
2023/12/17 07:32:54;;;;;;;11.13;6.85;;;;;;;10.14;98.84;102788.22;8272978;28;20050;-56
2023/12/17 07:36:54;;;;;;;15.32;8.00;;;;;;;10.14;98.77;102788.22;8276408;28;20493;-55
2023/12/17 07:40:54;;;;;;;7.22;4.88;;;;;;;10.19;99.25;102780.72;8274179;28;20034;-55
2023/12/17 07:44:55;;;;;;;3.97;3.25;;;;;;;10.19;98.78;102780.72;8277318;28;20049;-55
2023/12/17 07:48:55;;;;;;;6.00;3.50;;;;;;;10.27;98.11;102780.31;8276951;28;20068;-55
2023/12/17 07:52:56;;;;;;;5.30;2.53;;;;;;;10.29;98.30;102781.97;8269003;28;20035;-56
2023/12/17 07:56:56;;;;;;;4.55;2.88;;;;;;;10.32;97.90;102781.81;8273926;28;20475;-56
2023/12/17 08:00:58;;;;;;;3.92;2.50;;;;;;;10.38;97.75;102764.38;8274572;28;21268;-56
2023/12/17 08:04:58;;;;;;;4.20;2.88;;;;;;;10.40;97.68;102763.31;8262290;28;20050;-56
2023/12/17 08:08:59;;;;;;;6.63;3.40;;;;;;;10.38;97.60;102769.78;8229986;28;20372;-56
2023/12/17 08:12:59;;;;;;;6.05;3.72;;;;;;;10.46;97.56;102767.53;8270031;28;20074;-56
2023/12/17 08:17:00;;;;;;;6.15;3.50;;;;;;;10.45;97.12;102765.75;8260744;28;20774;-55
2023/12/17 08:21:01;;;;;;;7.25;3.83;;;;;;;10.41;97.55;102765.06;8266288;28;20043;-55
2023/12/17 08:25:02;;;;;;;5.60;3.63;;;;;;;10.42;97.76;102766.81;8265040;28;20117;-56
2023/12/17 08:29:03;;;;;;;5.53;3.40;;;;;;;10.43;96.73;102762.28;8271672;28;20054;-56
2023/12/17 08:33:03;;;;;;;4.38;3.35;;;;;;;10.40;97.72;102763.31;8275510;28;20042;-58
2023/12/17 08:37:04;;;;;;;4.43;2.88;;;;;;;10.43;96.82;102763.13;8272772;28;20095;-58
2023/12/17 08:41:05;;;;;;;4.35;3.08;;;;;;;10.42;97.13;102766.81;8273234;28;20042;-57
2023/12/17 08:45:06;;;;;;;4.97;2.95;;;;;;;10.48;96.28;102771.88;8271536;28;20045;-56
2023/12/17 08:49:07;;;;;;;3.60;2.85;;;;;;;10.38;96.53;102770.66;8271686;28;20523;-55
2023/12/17 08:53:07;;;;;;;3.80;2.80;;;;;;;10.32;95.62;102754.75;8256282;28;20436;-56
2023/12/17 08:57:08;;;;;;;3.75;3.03;;;;;;;10.33;96.26;102761.91;8269147;28;20046;-55
2023/12/17 09:01:08;;;;;;;3.88;2.90;;;;;;;10.36;96.54;102772.56;8267599;28;20046;-57
2023/12/17 09:05:09;;;;;;;3.78;2.80;;;;;;;10.40;95.91;102774.13;8262294;28;20503;-56
2023/12/17 09:09:09;;;;;;;5.25;3.20;;;;;;;10.40;95.87;102771.41;8260275;28;20482;-56
2023/12/17 09:13:10;;;;;;;3.55;3.08;;;;;;;10.39;95.48;102769.69;8266018;28;20042;-56
2023/12/17 09:17:11;;;;;;;3.60;2.80;;;;;;;10.45;94.56;102777.47;8266432;28;20034;-56
2023/12/17 09:21:12;;;;;;;4.13;2.70;;;;;;;10.46;94.35;102773.78;8268068;28;20045;-57
2023/12/17 09:25:12;;;;;;;4.10;3.08;;;;;;;10.63;93.74;102780.97;8265955;28;20061;-55
2023/12/17 09:29:13;;;;;;;3.58;3.03;;;;;;;10.73;93.23;102780.38;8271377;28;20484;-56
2023/12/17 09:33:13;;;;;;;3.22;2.50;;;;;;;10.79;91.81;102782.72;8261569;28;20042;-56
2023/12/17 09:37:14;;;;;;;3.75;2.70;;;;;;;11.31;88.71;102791.41;8262849;28;20041;-55
2023/12/17 09:41:15;;;;;;;4.30;2.90;;;;;;;10.99;90.26;102793.31;8265900;28;20045;-56
2023/12/17 09:45:15;;;;;;;3.47;2.80;;;;;;;11.11;90.02;102798.03;8265776;28;20040;-56
2023/12/17 09:49:16;;;;;;;2.83;2.30;;;;;;;11.35;88.61;102799.28;8278984;28;20042;-55
2023/12/17 09:53:16;;;;;;;3.65;2.80;;;;;;;11.58;87.43;102801.50;8264704;28;20045;-56
2023/12/17 09:57:17;;;;;;;3.60;2.97;;;;;;;12.50;83.85;102794.94;8268041;28;20096;-56
2023/12/17 10:01:19;;;;;;;3.35;1.92;;;;;;;13.02;79.75;102791.47;8270351;28;20037;-57
2023/12/17 10:05:20;;;;;;;2.28;1.90;;;;;;;12.39;79.83;102786.59;8266011;28;20061;-55
2023/12/17 10:09:21;;;;;;;3.28;2.60;;;;;;;11.73;83.71;102783.50;8268340;28;20041;-56
2023/12/17 10:13:23;;;;;;;4.18;2.25;;;;;;;11.62;85.54;102778.72;8273210;28;20306;-57
2023/12/17 10:17:23;;;;;;;3.88;3.25;;;;;;;11.64;86.61;102776.78;8267797;28;20066;-56
2023/12/17 10:21:23;;;;;;;5.38;4.10;;;;;;;11.70;85.88;102773.72;8269652;28;20366;-57
2023/12/17 10:25:24;;;;;;;6.10;5.07;;;;;;;11.82;85.80;102767.56;8264392;28;20586;-55
2023/12/17 10:29:25;;;;;;;9.63;6.82;;;;;;;11.81;85.18;102768.50;8269081;28;20038;-55
2023/12/17 10:33:34;;;;;;;8.90;5.90;;;;;;;11.95;85.37;102761.38;8267270;28;20041;-56
2023/12/17 10:37:35;;;;;;;9.20;5.85;;;;;;;11.99;85.51;102752.09;8264504;28;20034;-55
2023/12/17 10:41:37;;;;;;;8.40;6.00;;;;;;;11.93;85.22;102754.19;8266156;28;20042;-55
2023/12/17 10:45:38;;;;;;;7.10;5.88;;;;;;;11.96;86.29;102738.72;8268925;28;20050;-55
2023/12/17 10:49:39;;;;;;;9.10;6.85;;;;;;;12.15;86.11;102748.31;8272844;28;20042;-55
2023/12/17 10:53:40;;;;;;;8.35;6.05;;;;;;;12.45;83.05;102734.66;8271500;28;20522;-56
2023/12/17 10:57:45;;;;;;;9.13;6.47;;;;;;;12.92;82.13;102725.16;8270943;28;20105;-57
2023/12/17 11:01:49;;;;;;;9.07;6.63;;;;;;;13.55;77.99;102709.06;8273509;28;20049;-56
2023/12/17 11:05:55;;;;;;;8.13;6.23;;;;;;;14.06;76.17;102718.97;8275169;28;20125;-55
2023/12/17 11:09:57;;;;;;;8.32;6.40;;;;;;;13.99;75.11;102708.69;8250118;28;20089;-55
2023/12/17 11:13:58;;;;;;;7.60;5.90;;;;;;;13.74;75.76;102699.53;8238196;28;20035;-56
2023/12/17 11:17:59;;;;;;;9.00;5.85;;;;;;;14.19;75.80;102692.66;8244083;28;20057;-55
2023/12/17 11:21:59;;;;;;;7.15;5.80;;;;;;;15.40;69.75;102693.44;8237155;28;20039;-55
2023/12/17 11:26:00;;;;;;;8.25;5.70;;;;;;;15.57;69.96;102693.03;8270760;28;20191;-57
2023/12/17 11:30:01;;;;;;;8.27;5.40;;;;;;;16.13;68.59;102665.81;8272206;28;20042;-55
2023/12/17 11:34:01;;;;;;;5.82;5.05;;;;;;;15.41;68.56;102673.38;8274937;28;20072;-55
2023/12/17 11:38:03;;;;;;;7.95;6.00;;;;;;;15.40;69.59;102671.63;8273114;28;20045;-56
2023/12/17 11:42:04;;;;;;;6.82;5.35;;;;;;;15.42;69.21;102664.22;8271389;28;20048;-57
2023/12/17 11:46:10;;;;;;;7.97;5.00;;;;;;;14.49;72.23;102668.66;8272008;28;20415;-56
2023/12/17 11:50:12;;;;;;;8.27;4.80;;;;;;;14.43;72.59;102666.41;8274988;28;20054;-56
2023/12/17 11:54:21;;;;;;;9.05;5.57;;;;;;;14.25;74.57;102667.75;8270680;28;20061;-58
2023/12/17 11:58:23;;;;;;;7.07;5.28;;;;;;;13.30;76.09;102662.84;8269408;28;20403;-56
2023/12/17 12:02:27;;;;;;;7.93;5.03;;;;;;;12.75;78.90;102651.22;8270102;28;20038;-57
2023/12/17 12:06:29;;;;;;;8.38;4.68;;;;;;;12.39;79.72;102649.09;8273401;28;20404;-56
2023/12/17 12:10:30;;;;;;;11.43;6.35;;;;;;;12.32;80.95;102652.31;8267838;28;20492;-58
2023/12/17 12:14:30;;;;;;;8.52;5.45;;;;;;;12.33;81.66;102643.19;8271400;28;20411;-56
2023/12/17 12:18:31;;;;;;;9.57;5.57;;;;;;;12.32;82.25;102646.91;8271719;28;20106;-57
2023/12/17 12:22:31;;;;;;;7.05;4.53;;;;;;;12.29;82.33;102636.25;8269248;28;20125;-56
2023/12/17 12:26:34;;;;;;;9.23;5.97;;;;;;;12.38;83.39;102625.66;8273272;28;20044;-57
2023/12/17 12:30:34;;;;;;;9.65;4.68;;;;;;;12.48;82.12;102631.34;8269752;28;20038;-57
2023/12/17 12:34:35;;;;;;;10.15;4.75;;;;;;;12.58;83.26;102619.78;8273985;28;20038;-57
2023/12/17 12:38:35;;;;;;;10.60;4.53;;;;;;;12.81;82.24;102629.94;8269619;28;20257;-57
2023/12/17 12:42:36;;;;;;;5.57;4.20;;;;;;;12.87;81.02;102623.25;8272348;28;20048;-57
2023/12/17 12:46:36;;;;;;;7.13;4.15;;;;;;;12.68;81.87;102611.88;8265956;28;20041;-58
2023/12/17 12:50:38;;;;;;;7.80;4.03;;;;;;;12.67;83.01;102608.31;8276191;28;20053;-57
2023/12/17 12:54:39;;;;;;;4.63;3.53;;;;;;;12.39;84.54;102596.69;8269850;28;20033;-56
2023/12/17 12:58:40;;;;;;;4.72;3.55;;;;;;;12.77;82.46;102592.25;8274180;28;20042;-57
2023/12/17 13:02:41;;;;;;;6.97;4.25;;;;;;;12.83;81.85;102591.84;8267816;28;20049;-56
2023/12/17 13:06:41;;;;;;;5.32;3.63;;;;;;;12.44;83.44;102580.97;8268466;28;20045;-56
2023/12/17 13:10:42;;;;;;;4.82;3.60;;;;;;;12.52;82.58;102573.19;8267762;28;20046;-54
2023/12/17 13:14:42;;;;;;;6.10;3.15;;;;;;;12.70;81.92;102566.50;8267519;28;20372;-56
2023/12/17 13:18:43;;;;;;;5.80;3.22;;;;;;;12.62;82.18;102552.59;8269469;28;20432;-56
2023/12/17 13:22:43;;;;;;;4.65;2.90;;;;;;;12.78;82.42;102542.44;8268883;28;20044;-55
2023/12/17 13:26:44;;;;;;;6.13;3.25;;;;;;;12.86;82.50;102540.06;8269433;28;20042;-56
2023/12/17 13:30:45;;;;;;;5.10;3.58;;;;;;;12.82;82.44;102538.53;8265282;28;20081;-57
2023/12/17 13:34:45;;;;;;;7.40;3.80;;;;;;;12.81;82.96;102537.66;8269006;28;20046;-55
2023/12/17 13:38:46;;;;;;;3.33;2.42;;;;;;;12.84;81.78;102533.88;8266469;28;20485;-55
2023/12/17 13:42:49;;;;;;;4.65;3.00;;;;;;;12.76;82.88;102533.53;8258202;28;20042;-57
2023/12/17 13:46:50;;;;;;;3.42;2.15;;;;;;;12.78;82.18;102531.59;8266827;28;20132;-57
2023/12/17 13:50:50;;;;;;;6.07;2.70;;;;;;;12.70;82.58;102523.09;8264913;28;20092;-56
2023/12/17 13:54:51;;;;;;;3.33;2.20;;;;;;;12.80;83.69;102518.75;8262851;28;20041;-56
2023/12/17 13:58:51;;;;;;;3.80;2.65;;;;;;;12.76;83.60;102511.81;8270405;28;20042;-56
2023/12/17 14:02:53;;;;;;;3.85;2.95;;;;;;;13.03;82.93;102510.81;8264852;28;20053;-56
2023/12/17 14:06:53;;;;;;;4.82;2.20;;;;;;;12.94;83.01;102505.09;8269809;28;20038;-55
2023/12/17 14:10:54;;;;;;;4.10;2.65;;;;;;;12.72;84.00;102499.44;8265468;28;20042;-56
2023/12/17 14:14:55;;;;;;;4.75;2.85;;;;;;;12.85;84.52;102503.03;8267948;28;20057;-57
2023/12/17 14:18:55;;;;;;;4.15;3.00;;;;;;;12.82;83.98;102505.97;8270397;28;20053;-55
2023/12/17 14:22:56;;;;;;;3.40;2.70;;;;;;;12.85;84.11;102501.19;8265863;28;20038;-56
2023/12/17 14:26:56;;;;;;;6.88;2.50;;;;;;;12.88;84.11;102505.53;8263913;28;20046;-56
2023/12/17 14:30:57;;;;;;;3.30;2.22;;;;;;;12.90;84.18;102506.31;8268737;28;20049;-56
2023/12/17 14:34:57;;;;;;;4.78;2.33;;;;;;;12.93;84.17;102493.38;8269224;28;20045;-55
2023/12/17 14:38:58;;;;;;;3.60;2.25;;;;;;;12.93;84.04;102492.50;8261631;28;20120;-57
2023/12/17 14:42:58;;;;;;;3.05;2.28;;;;;;;12.86;84.64;102485.75;8267173;28;20041;-56
2023/12/17 14:46:59;;;;;;;4.15;2.58;;;;;;;12.70;84.67;102474.22;8267538;28;20045;-56
2023/12/17 14:50:59;;;;;;;4.25;2.58;;;;;;;12.65;85.03;102477.25;8269651;28;20066;-56
2023/12/17 14:55:01;;;;;;;2.92;2.28;;;;;;;12.49;85.85;102471.16;8266220;28;20045;-56
2023/12/17 14:59:02;;;;;;;7.43;2.72;;;;;;;12.31;86.82;102466.09;8268423;28;20050;-57
2023/12/17 15:03:03;;;;;;;8.45;2.88;;;;;;;12.32;87.94;102467.88;8267732;28;20048;-57
2023/12/17 15:07:03;;;;;;;7.03;3.05;;;;;;;12.16;88.15;102468.03;8269027;28;20046;-57
2023/12/17 15:11:04;;;;;;;3.88;3.05;;;;;;;12.11;89.47;102462.06;8279729;28;20391;-57
2023/12/17 15:15:05;;;;;;;4.03;3.17;;;;;;;11.86;90.76;102464.63;8268233;28;20385;-56
2023/12/17 15:19:06;;;;;;;13.50;6.13;;;;;;;11.66;92.37;102455.13;8267772;28;20041;-56
2023/12/17 15:23:06;;;;;;;7.68;5.43;;;;;;;11.50;92.58;102461.63;8265339;28;20038;-56
2023/12/17 15:27:07;;;;;;;4.25;3.33;;;;;;;11.37;93.15;102456.09;8269048;28;20058;-55
2023/12/17 15:31:11;;;;;;;6.65;4.70;;;;;;;11.22;93.60;102454.38;8263836;28;20042;-55
2023/12/17 15:35:12;;;;;;;6.20;4.93;;;;;;;11.18;94.14;102466.38;8266799;28;20589;-56
2023/12/17 15:39:13;;;;;;;7.65;4.97;;;;;;;11.10;94.87;102457.84;8273328;28;20662;-57
2023/12/17 15:43:13;;;;;;;8.38;5.20;;;;;;;10.99;94.88;102454.97;8270793;28;20678;-56
2023/12/17 15:47:14;;;;;;;9.40;4.90;;;;;;;10.88;95.17;102462.00;8272249;28;20043;-58
2023/12/17 15:51:22;;;;;;;6.75;4.40;;;;;;;10.59;94.88;102461.09;8273890;28;20034;-57
2023/12/17 15:55:22;;;;;;;5.13;3.78;;;;;;;10.59;96.69;102463.81;8272356;28;20038;-54
2023/12/17 15:59:23;;;;;;;7.30;4.53;;;;;;;10.32;98.77;102457.34;8271732;28;20049;-55
2023/12/17 16:03:23;;;;;;;8.52;5.03;;;;;;;10.09;100.00;102470.50;8273807;28;20172;-56
2023/12/17 16:07:24;;;;;;;7.47;5.22;;;;;;;9.96;100.00;102460.38;8272712;28;20070;-57
2023/12/17 16:11:24;;;;;;;8.38;5.40;;;;;;;10.02;100.00;102464.53;8262088;28;20046;-55
2023/12/17 16:15:25;;;;;;;9.45;6.13;;;;;;;10.19;100.00;102458.16;8271846;28;20048;-56
2023/12/17 16:19:25;;;;;;;13.75;8.57;;;;;;;10.16;99.39;102458.34;8279146;28;20055;-56
2023/12/17 16:23:26;;;;;;;15.05;9.68;;;;;;;10.07;99.78;102462.47;8278830;28;20407;-58
2023/12/17 16:27:26;;;;;;;18.20;11.00;;;;;;;9.93;99.34;102478.56;8276031;28;20038;-56
2023/12/17 16:31:27;;;;;;;11.88;7.93;;;;;;;9.83;100.00;102470.13;8273836;28;20126;-57
2023/12/17 16:35:27;;;;;;;28.70;13.18;;;;;;;9.78;100.00;102471.34;8276295;28;20046;-57
2023/12/17 16:39:29;;;;;;;10.63;7.75;;;;;;;9.82;100.00;102472.91;8276616;28;20057;-56
2023/12/17 16:43:30;;;;;;;14.90;9.45;;;;;;;9.75;99.05;102466.13;8276811;28;20069;-57
2023/12/17 16:47:30;;;;;;;10.32;7.88;;;;;;;9.42;100.00;102478.81;8266465;28;20133;-55
2023/12/17 16:51:31;;;;;;;9.93;7.07;;;;;;;9.39;100.00;102468.19;8265648;28;20046;-54
2023/12/17 16:55:31;;;;;;;16.60;7.93;;;;;;;9.44;100.00;102461.59;8263045;28;20177;-56
2023/12/17 16:59:31;;;;;;;11.75;7.82;;;;;;;9.55;100.00;102463.69;8266495;28;20050;-55
2023/12/17 17:03:32;;;;;;;10.68;7.93;;;;;;;9.54;100.00;102456.53;8266402;28;20413;-55
2023/12/17 17:07:33;;;;;;;10.63;6.72;;;;;;;9.52;100.00;102453.06;8268609;28;20408;-56
2023/12/17 17:11:33;;;;;;;10.35;7.05;;;;;;;9.55;99.95;102461.00;8268546;28;20042;-55
2023/12/17 17:15:34;;;;;;;10.73;6.90;;;;;;;9.48;99.62;102451.47;8264484;28;20042;-56
2023/12/17 17:19:34;;;;;;;13.30;7.10;;;;;;;9.51;99.87;102443.19;8270114;28;20046;-56
2023/12/17 17:23:35;;;;;;;12.00;7.00;;;;;;;9.42;100.00;102447.31;8269238;28;20100;-56
2023/12/17 17:27:35;;;;;;;10.40;6.35;;;;;;;9.35;100.00;102450.44;8269152;28;20069;-56
2023/12/17 17:31:36;;;;;;;13.27;8.25;;;;;;;9.31;100.00;102440.78;8269835;28;20076;-55
2023/12/17 17:35:36;;;;;;;15.52;9.50;;;;;;;9.41;100.00;102431.19;8268427;28;20112;-56
2023/12/17 17:39:37;;;;;;;27.75;17.42;;;;;;;9.28;100.00;102438.25;8267727;28;20041;-56
2023/12/17 17:43:37;;;;;;;21.23;11.13;;;;;;;9.17;100.00;102440.66;8269839;28;20045;-55
2023/12/17 17:47:38;;;;;;;17.30;9.25;;;;;;;9.09;100.00;102449.16;8266843;28;20042;-54
2023/12/17 17:51:38;;;;;;;12.90;7.80;;;;;;;9.00;100.00;102435.34;8268980;28;20129;-56
2023/12/17 17:55:38;;;;;;;13.18;7.35;;;;;;;8.86;100.00;102433.38;8267953;28;20153;-56
2023/12/17 17:59:40;;;;;;;12.85;8.07;;;;;;;8.70;100.00;102432.47;8268352;28;20564;-54
2023/12/17 18:03:40;;;;;;;15.07;8.27;;;;;;;8.69;100.00;102433.41;8256732;28;20065;-55
2023/12/17 18:07:40;;;;;;;18.08;9.13;;;;;;;8.61;100.00;102432.06;8263746;28;20049;-55
2023/12/17 18:11:42;;;;;;;16.05;9.10;;;;;;;8.53;100.00;102432.47;8267834;28;20042;-54
2023/12/17 18:15:42;;;;;;;15.40;10.27;;;;;;;8.52;100.00;102436.13;8266132;28;20064;-55
2023/12/17 18:19:44;;;;;;;17.00;10.18;;;;;;;8.16;100.00;102437.13;8268051;28;20123;-54
2023/12/17 18:23:44;;;;;;;16.75;9.20;;;;;;;8.07;100.00;102439.34;8266776;28;20038;-55
2023/12/17 18:27:45;;;;;;;18.45;9.55;;;;;;;8.09;100.00;102442.81;8268364;28;20500;-57
2023/12/17 18:31:45;;;;;;;16.52;9.55;;;;;;;8.21;100.00;102441.34;8270511;28;20511;-57
2023/12/17 18:35:46;;;;;;;15.13;10.27;;;;;;;8.17;100.00;102433.50;8272798;28;20045;-55
2023/12/17 18:39:48;;;;;;;21.48;12.05;;;;;;;8.29;100.00;102438.28;8270685;28;20065;-56